sensor_id;sensor_type;location;lat;lon;timestamp;P1;durP1;ratioP1;P2;durP2;ratioP2
34064;SDS011;20339;49.754;20.158;2023-11-21T00:00:20;0.90;;;0.60;;
34064;SDS011;20339;49.754;20.158;2023-11-21T00:03:12;2.00;;;1.00;;
34064;SDS011;20339;49.754;20.158;2023-11-21T00:05:44;1.30;;;0.90;;
34064;SDS011;20339;49.754;20.158;2023-11-21T00:08:16;2.50;;;1.40;;
34064;SDS011;20339;49.754;20.158;2023-11-21T00:10:47;1.30;;;1.20;;
34064;SDS011;20339;49.754;20.158;2023-11-21T00:13:19;2.50;;;1.10;;
34064;SDS011;20339;49.754;20.158;2023-11-21T00:15:52;1.30;;;1.00;;
34064;SDS011;20339;49.754;20.158;2023-11-21T00:18:23;2.60;;;1.10;;
34064;SDS011;20339;49.754;20.158;2023-11-21T00:20:56;1.90;;;1.20;;
34064;SDS011;20339;49.754;20.158;2023-11-21T00:23:27;1.70;;;1.20;;
34064;SDS011;20339;49.754;20.158;2023-11-21T00:26:03;1.40;;;1.10;;
34064;SDS011;20339;49.754;20.158;2023-11-21T00:28:35;2.80;;;1.40;;
34064;SDS011;20339;49.754;20.158;2023-11-21T00:31:06;2.70;;;1.30;;
34064;SDS011;20339;49.754;20.158;2023-11-21T00:33:37;4.90;;;1.60;;
34064;SDS011;20339;49.754;20.158;2023-11-21T00:36:10;2.00;;;1.80;;
34064;SDS011;20339;49.754;20.158;2023-11-21T00:38:42;3.60;;;2.40;;
34064;SDS011;20339;49.754;20.158;2023-11-21T00:41:18;3.60;;;2.60;;
34064;SDS011;20339;49.754;20.158;2023-11-21T00:43:56;2.40;;;1.80;;
34064;SDS011;20339;49.754;20.158;2023-11-21T00:46:29;2.60;;;1.90;;
34064;SDS011;20339;49.754;20.158;2023-11-21T00:49:00;4.10;;;2.30;;
34064;SDS011;20339;49.754;20.158;2023-11-21T00:51:32;2.10;;;1.40;;
34064;SDS011;20339;49.754;20.158;2023-11-21T00:54:06;3.00;;;2.20;;
34064;SDS011;20339;49.754;20.158;2023-11-21T00:56:37;4.60;;;1.70;;
34064;SDS011;20339;49.754;20.158;2023-11-21T00:59:11;2.70;;;1.90;;
34064;SDS011;20339;49.754;20.158;2023-11-21T01:01:50;3.40;;;1.80;;
34064;SDS011;20339;49.754;20.158;2023-11-21T01:04:22;5.00;;;2.00;;
34064;SDS011;20339;49.754;20.158;2023-11-21T01:06:58;3.40;;;2.00;;
34064;SDS011;20339;49.754;20.158;2023-11-21T01:09:35;2.20;;;1.80;;
34064;SDS011;20339;49.754;20.158;2023-11-21T01:12:06;2.30;;;1.70;;
34064;SDS011;20339;49.754;20.158;2023-11-21T01:14:42;3.10;;;1.80;;
34064;SDS011;20339;49.754;20.158;2023-11-21T01:17:14;2.50;;;1.30;;
34064;SDS011;20339;49.754;20.158;2023-11-21T01:19:46;3.50;;;1.70;;
34064;SDS011;20339;49.754;20.158;2023-11-21T01:22:19;3.20;;;1.50;;
34064;SDS011;20339;49.754;20.158;2023-11-21T01:24:54;1.20;;;0.90;;
34064;SDS011;20339;49.754;20.158;2023-11-21T01:27:28;1.70;;;1.40;;
34064;SDS011;20339;49.754;20.158;2023-11-21T01:30:04;2.40;;;1.20;;
34064;SDS011;20339;49.754;20.158;2023-11-21T01:32:38;2.20;;;1.40;;
34064;SDS011;20339;49.754;20.158;2023-11-21T01:35:09;1.70;;;1.10;;
34064;SDS011;20339;49.754;20.158;2023-11-21T01:37:41;2.70;;;1.50;;
34064;SDS011;20339;49.754;20.158;2023-11-21T01:40:16;2.00;;;1.30;;
34064;SDS011;20339;49.754;20.158;2023-11-21T01:42:49;1.10;;;0.60;;
34064;SDS011;20339;49.754;20.158;2023-11-21T01:45:22;1.40;;;1.20;;
34064;SDS011;20339;49.754;20.158;2023-11-21T01:47:54;1.60;;;1.30;;
34064;SDS011;20339;49.754;20.158;2023-11-21T01:50:30;1.50;;;1.00;;
34064;SDS011;20339;49.754;20.158;2023-11-21T01:53:02;1.70;;;1.20;;
34064;SDS011;20339;49.754;20.158;2023-11-21T01:55:37;1.50;;;0.90;;
34064;SDS011;20339;49.754;20.158;2023-11-21T01:58:09;0.70;;;0.70;;
34064;SDS011;20339;49.754;20.158;2023-11-21T02:00:44;2.50;;;1.00;;
34064;SDS011;20339;49.754;20.158;2023-11-21T02:03:21;1.90;;;1.50;;
34064;SDS011;20339;49.754;20.158;2023-11-21T02:05:57;1.50;;;1.10;;
34064;SDS011;20339;49.754;20.158;2023-11-21T02:08:32;1.60;;;1.20;;
34064;SDS011;20339;49.754;20.158;2023-11-21T02:11:08;1.80;;;1.10;;
34064;SDS011;20339;49.754;20.158;2023-11-21T02:13:43;1.20;;;0.80;;
34064;SDS011;20339;49.754;20.158;2023-11-21T02:16:15;3.10;;;1.70;;
34064;SDS011;20339;49.754;20.158;2023-11-21T02:18:48;1.70;;;1.20;;
34064;SDS011;20339;49.754;20.158;2023-11-21T02:21:22;1.30;;;1.20;;
34064;SDS011;20339;49.754;20.158;2023-11-21T02:23:57;1.70;;;1.30;;
34064;SDS011;20339;49.754;20.158;2023-11-21T02:26:31;3.00;;;1.50;;
34064;SDS011;20339;49.754;20.158;2023-11-21T02:29:09;1.60;;;1.10;;
34064;SDS011;20339;49.754;20.158;2023-11-21T02:31:41;2.20;;;1.50;;
34064;SDS011;20339;49.754;20.158;2023-11-21T02:34:16;2.20;;;1.30;;
34064;SDS011;20339;49.754;20.158;2023-11-21T02:36:49;2.60;;;1.40;;
34064;SDS011;20339;49.754;20.158;2023-11-21T02:39:22;3.50;;;1.40;;
34064;SDS011;20339;49.754;20.158;2023-11-21T02:41:55;4.90;;;2.20;;
34064;SDS011;20339;49.754;20.158;2023-11-21T02:44:26;2.70;;;1.40;;
34064;SDS011;20339;49.754;20.158;2023-11-21T02:46:58;3.00;;;1.60;;
34064;SDS011;20339;49.754;20.158;2023-11-21T02:49:31;1.40;;;0.60;;
34064;SDS011;20339;49.754;20.158;2023-11-21T02:52:02;4.30;;;1.70;;
34064;SDS011;20339;49.754;20.158;2023-11-21T02:54:38;2.80;;;1.70;;
34064;SDS011;20339;49.754;20.158;2023-11-21T02:57:08;4.60;;;1.40;;
34064;SDS011;20339;49.754;20.158;2023-11-21T02:59:42;2.50;;;1.10;;
34064;SDS011;20339;49.754;20.158;2023-11-21T03:02:19;2.90;;;1.50;;
34064;SDS011;20339;49.754;20.158;2023-11-21T03:04:51;1.40;;;1.10;;
34064;SDS011;20339;49.754;20.158;2023-11-21T03:07:25;2.90;;;1.40;;
34064;SDS011;20339;49.754;20.158;2023-11-21T03:09:56;2.90;;;1.10;;
34064;SDS011;20339;49.754;20.158;2023-11-21T03:12:28;2.60;;;1.70;;
34064;SDS011;20339;49.754;20.158;2023-11-21T03:14:59;3.70;;;1.00;;
34064;SDS011;20339;49.754;20.158;2023-11-21T03:17:30;3.70;;;1.20;;
34064;SDS011;20339;49.754;20.158;2023-11-21T03:20:05;1.90;;;1.40;;
34064;SDS011;20339;49.754;20.158;2023-11-21T03:22:39;4.70;;;1.50;;
34064;SDS011;20339;49.754;20.158;2023-11-21T03:25:10;2.40;;;0.90;;
34064;SDS011;20339;49.754;20.158;2023-11-21T03:27:45;2.80;;;1.40;;
34064;SDS011;20339;49.754;20.158;2023-11-21T03:30:18;2.10;;;1.50;;
34064;SDS011;20339;49.754;20.158;2023-11-21T03:32:50;2.40;;;1.30;;
34064;SDS011;20339;49.754;20.158;2023-11-21T03:35:21;3.70;;;1.30;;
34064;SDS011;20339;49.754;20.158;2023-11-21T03:37:52;1.60;;;1.00;;
34064;SDS011;20339;49.754;20.158;2023-11-21T03:40:25;4.00;;;1.60;;
34064;SDS011;20339;49.754;20.158;2023-11-21T03:42:56;3.80;;;1.40;;
34064;SDS011;20339;49.754;20.158;2023-11-21T03:45:27;4.70;;;1.50;;
34064;SDS011;20339;49.754;20.158;2023-11-21T03:47:58;2.30;;;1.40;;
34064;SDS011;20339;49.754;20.158;2023-11-21T03:50:30;3.30;;;1.60;;
34064;SDS011;20339;49.754;20.158;2023-11-21T03:53:02;1.60;;;1.50;;
34064;SDS011;20339;49.754;20.158;2023-11-21T03:55:33;3.10;;;1.30;;
34064;SDS011;20339;49.754;20.158;2023-11-21T03:58:09;2.50;;;1.70;;
34064;SDS011;20339;49.754;20.158;2023-11-21T04:00:42;1.90;;;1.30;;
34064;SDS011;20339;49.754;20.158;2023-11-21T04:03:19;2.40;;;1.20;;
34064;SDS011;20339;49.754;20.158;2023-11-21T04:05:57;1.50;;;0.80;;
34064;SDS011;20339;49.754;20.158;2023-11-21T04:08:32;2.70;;;1.70;;
34064;SDS011;20339;49.754;20.158;2023-11-21T04:11:08;2.50;;;1.20;;
34064;SDS011;20339;49.754;20.158;2023-11-21T04:13:43;3.80;;;1.50;;
34064;SDS011;20339;49.754;20.158;2023-11-21T04:16:15;2.70;;;1.40;;
34064;SDS011;20339;49.754;20.158;2023-11-21T04:18:49;5.50;;;1.70;;
34064;SDS011;20339;49.754;20.158;2023-11-21T04:21:26;4.50;;;1.60;;
34064;SDS011;20339;49.754;20.158;2023-11-21T04:24:00;3.20;;;1.90;;
34064;SDS011;20339;49.754;20.158;2023-11-21T04:26:33;1.30;;;1.20;;
34064;SDS011;20339;49.754;20.158;2023-11-21T04:29:08;5.10;;;2.30;;
34064;SDS011;20339;49.754;20.158;2023-11-21T04:31:40;3.90;;;2.20;;
34064;SDS011;20339;49.754;20.158;2023-11-21T04:34:14;3.90;;;1.90;;
34064;SDS011;20339;49.754;20.158;2023-11-21T04:36:45;4.10;;;2.00;;
34064;SDS011;20339;49.754;20.158;2023-11-21T04:39:19;2.80;;;1.80;;
34064;SDS011;20339;49.754;20.158;2023-11-21T04:41:50;2.30;;;1.40;;
34064;SDS011;20339;49.754;20.158;2023-11-21T04:44:23;4.10;;;1.50;;
34064;SDS011;20339;49.754;20.158;2023-11-21T04:46:54;5.60;;;1.70;;
34064;SDS011;20339;49.754;20.158;2023-11-21T04:49:25;2.60;;;1.80;;
34064;SDS011;20339;49.754;20.158;2023-11-21T04:51:56;4.70;;;1.70;;
34064;SDS011;20339;49.754;20.158;2023-11-21T04:54:30;5.70;;;2.30;;
34064;SDS011;20339;49.754;20.158;2023-11-21T04:57:01;5.30;;;1.80;;
34064;SDS011;20339;49.754;20.158;2023-11-21T04:59:35;4.20;;;1.80;;
34064;SDS011;20339;49.754;20.158;2023-11-21T05:02:06;5.00;;;2.10;;
34064;SDS011;20339;49.754;20.158;2023-11-21T05:04:38;3.60;;;2.00;;
34064;SDS011;20339;49.754;20.158;2023-11-21T05:07:11;3.20;;;2.20;;
34064;SDS011;20339;49.754;20.158;2023-11-21T05:09:44;4.70;;;2.10;;
34064;SDS011;20339;49.754;20.158;2023-11-21T05:12:21;2.20;;;1.70;;
34064;SDS011;20339;49.754;20.158;2023-11-21T05:14:55;2.10;;;1.60;;
34064;SDS011;20339;49.754;20.158;2023-11-21T05:17:30;3.60;;;2.40;;
34064;SDS011;20339;49.754;20.158;2023-11-21T05:20:05;3.50;;;2.20;;
34064;SDS011;20339;49.754;20.158;2023-11-21T05:22:40;7.40;;;3.00;;
34064;SDS011;20339;49.754;20.158;2023-11-21T05:25:11;2.90;;;2.20;;
34064;SDS011;20339;49.754;20.158;2023-11-21T05:27:49;4.40;;;2.50;;
34064;SDS011;20339;49.754;20.158;2023-11-21T05:30:23;4.30;;;2.30;;
34064;SDS011;20339;49.754;20.158;2023-11-21T05:32:54;5.80;;;2.70;;
34064;SDS011;20339;49.754;20.158;2023-11-21T05:35:28;5.50;;;2.50;;
34064;SDS011;20339;49.754;20.158;2023-11-21T05:38:01;3.70;;;2.00;;
34064;SDS011;20339;49.754;20.158;2023-11-21T05:40:39;3.60;;;2.30;;
34064;SDS011;20339;49.754;20.158;2023-11-21T05:43:12;5.30;;;2.10;;
34064;SDS011;20339;49.754;20.158;2023-11-21T05:45:44;3.50;;;2.10;;
34064;SDS011;20339;49.754;20.158;2023-11-21T05:48:19;3.10;;;2.00;;
34064;SDS011;20339;49.754;20.158;2023-11-21T05:50:50;3.90;;;2.20;;
34064;SDS011;20339;49.754;20.158;2023-11-21T05:53:26;7.10;;;2.70;;
34064;SDS011;20339;49.754;20.158;2023-11-21T05:55:59;4.60;;;2.80;;
34064;SDS011;20339;49.754;20.158;2023-11-21T05:58:31;6.10;;;2.80;;
34064;SDS011;20339;49.754;20.158;2023-11-21T06:01:05;5.80;;;3.00;;
34064;SDS011;20339;49.754;20.158;2023-11-21T06:03:39;3.90;;;2.50;;
34064;SDS011;20339;49.754;20.158;2023-11-21T06:06:11;2.90;;;2.20;;
34064;SDS011;20339;49.754;20.158;2023-11-21T06:08:45;3.50;;;2.40;;
34064;SDS011;20339;49.754;20.158;2023-11-21T06:11:16;5.20;;;2.60;;
34064;SDS011;20339;49.754;20.158;2023-11-21T06:13:48;4.70;;;2.30;;
34064;SDS011;20339;49.754;20.158;2023-11-21T06:16:21;4.70;;;2.30;;
34064;SDS011;20339;49.754;20.158;2023-11-21T06:18:52;3.70;;;2.30;;
34064;SDS011;20339;49.754;20.158;2023-11-21T06:21:23;5.00;;;2.80;;
34064;SDS011;20339;49.754;20.158;2023-11-21T06:23:56;5.50;;;2.80;;
34064;SDS011;20339;49.754;20.158;2023-11-21T06:26:28;6.40;;;3.60;;
34064;SDS011;20339;49.754;20.158;2023-11-21T06:29:05;4.30;;;3.40;;
34064;SDS011;20339;49.754;20.158;2023-11-21T06:31:36;5.30;;;3.10;;
34064;SDS011;20339;49.754;20.158;2023-11-21T06:34:08;4.70;;;3.10;;
34064;SDS011;20339;49.754;20.158;2023-11-21T06:36:40;5.80;;;3.20;;
34064;SDS011;20339;49.754;20.158;2023-11-21T06:39:13;5.00;;;3.30;;
34064;SDS011;20339;49.754;20.158;2023-11-21T06:41:50;5.00;;;2.50;;
34064;SDS011;20339;49.754;20.158;2023-11-21T06:44:26;6.50;;;2.40;;
34064;SDS011;20339;49.754;20.158;2023-11-21T06:46:57;4.50;;;2.70;;
34064;SDS011;20339;49.754;20.158;2023-11-21T06:49:28;3.50;;;2.40;;
34064;SDS011;20339;49.754;20.158;2023-11-21T06:52:05;5.10;;;2.60;;
34064;SDS011;20339;49.754;20.158;2023-11-21T06:54:41;3.60;;;2.20;;
34064;SDS011;20339;49.754;20.158;2023-11-21T06:57:15;4.00;;;2.10;;
34064;SDS011;20339;49.754;20.158;2023-11-21T06:59:46;4.00;;;2.30;;
34064;SDS011;20339;49.754;20.158;2023-11-21T07:02:18;3.80;;;2.20;;
34064;SDS011;20339;49.754;20.158;2023-11-21T07:04:49;4.80;;;2.20;;
34064;SDS011;20339;49.754;20.158;2023-11-21T07:07:22;4.00;;;2.60;;
34064;SDS011;20339;49.754;20.158;2023-11-21T07:09:58;6.20;;;2.70;;
34064;SDS011;20339;49.754;20.158;2023-11-21T07:12:32;5.40;;;2.70;;
34064;SDS011;20339;49.754;20.158;2023-11-21T07:15:03;4.20;;;3.10;;
34064;SDS011;20339;49.754;20.158;2023-11-21T07:17:39;5.20;;;2.50;;
34064;SDS011;20339;49.754;20.158;2023-11-21T07:20:17;4.90;;;2.30;;
34064;SDS011;20339;49.754;20.158;2023-11-21T07:22:49;2.60;;;2.00;;
34064;SDS011;20339;49.754;20.158;2023-11-21T07:25:23;4.70;;;2.90;;
34064;SDS011;20339;49.754;20.158;2023-11-21T07:27:54;4.70;;;2.60;;
34064;SDS011;20339;49.754;20.158;2023-11-21T07:30:27;3.90;;;2.70;;
34064;SDS011;20339;49.754;20.158;2023-11-21T07:33:03;2.70;;;2.00;;
34064;SDS011;20339;49.754;20.158;2023-11-21T07:35:35;4.20;;;2.20;;
34064;SDS011;20339;49.754;20.158;2023-11-21T07:38:06;4.40;;;2.30;;
34064;SDS011;20339;49.754;20.158;2023-11-21T07:40:40;4.20;;;2.20;;
34064;SDS011;20339;49.754;20.158;2023-11-21T07:43:14;2.80;;;1.80;;
34064;SDS011;20339;49.754;20.158;2023-11-21T07:45:47;2.10;;;1.50;;
34064;SDS011;20339;49.754;20.158;2023-11-21T07:48:23;2.30;;;1.80;;
34064;SDS011;20339;49.754;20.158;2023-11-21T07:50:56;4.30;;;2.30;;
34064;SDS011;20339;49.754;20.158;2023-11-21T07:53:27;3.30;;;2.00;;
34064;SDS011;20339;49.754;20.158;2023-11-21T07:56:02;3.80;;;1.60;;
34064;SDS011;20339;49.754;20.158;2023-11-21T07:58:37;2.80;;;2.50;;
34064;SDS011;20339;49.754;20.158;2023-11-21T08:01:10;2.40;;;1.80;;
34064;SDS011;20339;49.754;20.158;2023-11-21T08:03:41;3.00;;;2.10;;
34064;SDS011;20339;49.754;20.158;2023-11-21T08:06:19;3.20;;;2.20;;
34064;SDS011;20339;49.754;20.158;2023-11-21T08:08:53;4.30;;;2.10;;
34064;SDS011;20339;49.754;20.158;2023-11-21T08:11:26;3.70;;;2.60;;
34064;SDS011;20339;49.754;20.158;2023-11-21T08:14:03;4.70;;;2.20;;
34064;SDS011;20339;49.754;20.158;2023-11-21T08:16:37;5.00;;;2.40;;
34064;SDS011;20339;49.754;20.158;2023-11-21T08:19:11;4.00;;;2.50;;
34064;SDS011;20339;49.754;20.158;2023-11-21T08:21:49;7.30;;;2.70;;
34064;SDS011;20339;49.754;20.158;2023-11-21T08:24:27;2.80;;;2.50;;
34064;SDS011;20339;49.754;20.158;2023-11-21T08:27:00;5.80;;;3.20;;
34064;SDS011;20339;49.754;20.158;2023-11-21T08:29:32;4.10;;;2.50;;
34064;SDS011;20339;49.754;20.158;2023-11-21T08:32:04;4.50;;;2.90;;
34064;SDS011;20339;49.754;20.158;2023-11-21T08:34:41;5.80;;;2.80;;
34064;SDS011;20339;49.754;20.158;2023-11-21T08:37:18;2.70;;;2.00;;
34064;SDS011;20339;49.754;20.158;2023-11-21T08:39:51;5.10;;;2.20;;
34064;SDS011;20339;49.754;20.158;2023-11-21T08:42:22;4.30;;;2.30;;
34064;SDS011;20339;49.754;20.158;2023-11-21T08:44:57;3.80;;;2.30;;
34064;SDS011;20339;49.754;20.158;2023-11-21T08:47:31;4.20;;;2.40;;
34064;SDS011;20339;49.754;20.158;2023-11-21T08:50:06;4.10;;;3.00;;
34064;SDS011;20339;49.754;20.158;2023-11-21T08:52:44;4.20;;;2.10;;
34064;SDS011;20339;49.754;20.158;2023-11-21T08:55:21;2.80;;;1.90;;
34064;SDS011;20339;49.754;20.158;2023-11-21T08:57:52;4.30;;;2.40;;
34064;SDS011;20339;49.754;20.158;2023-11-21T09:00:29;5.10;;;2.20;;
34064;SDS011;20339;49.754;20.158;2023-11-21T09:03:04;3.60;;;2.60;;
34064;SDS011;20339;49.754;20.158;2023-11-21T09:05:39;3.90;;;2.70;;
34064;SDS011;20339;49.754;20.158;2023-11-21T09:08:10;3.30;;;2.20;;
34064;SDS011;20339;49.754;20.158;2023-11-21T09:10:44;3.60;;;3.00;;
34064;SDS011;20339;49.754;20.158;2023-11-21T09:13:18;5.60;;;2.80;;
34064;SDS011;20339;49.754;20.158;2023-11-21T09:15:49;6.00;;;3.20;;
34064;SDS011;20339;49.754;20.158;2023-11-21T09:18:20;5.00;;;2.90;;
34064;SDS011;20339;49.754;20.158;2023-11-21T09:20:53;6.10;;;3.20;;
34064;SDS011;20339;49.754;20.158;2023-11-21T09:23:27;7.10;;;4.20;;
34064;SDS011;20339;49.754;20.158;2023-11-21T09:26:00;5.40;;;3.10;;
34064;SDS011;20339;49.754;20.158;2023-11-21T09:28:33;7.30;;;4.30;;
34064;SDS011;20339;49.754;20.158;2023-11-21T09:31:06;5.30;;;3.10;;
34064;SDS011;20339;49.754;20.158;2023-11-21T09:33:37;4.10;;;3.30;;
34064;SDS011;20339;49.754;20.158;2023-11-21T09:36:12;3.20;;;2.10;;
34064;SDS011;20339;49.754;20.158;2023-11-21T09:38:53;5.50;;;2.90;;
34064;SDS011;20339;49.754;20.158;2023-11-21T09:41:37;4.40;;;3.20;;
34064;SDS011;20339;49.754;20.158;2023-11-21T09:44:16;4.00;;;2.80;;
34064;SDS011;20339;49.754;20.158;2023-11-21T09:46:56;9.10;;;6.40;;
34064;SDS011;20339;49.754;20.158;2023-11-21T09:49:37;7.90;;;3.30;;
34064;SDS011;20339;49.754;20.158;2023-11-21T09:52:11;7.30;;;3.30;;
34064;SDS011;20339;49.754;20.158;2023-11-21T09:54:55;5.20;;;3.20;;
34064;SDS011;20339;49.754;20.158;2023-11-21T09:57:29;5.40;;;2.90;;
34064;SDS011;20339;49.754;20.158;2023-11-21T10:00:04;4.60;;;2.70;;
34064;SDS011;20339;49.754;20.158;2023-11-21T10:02:42;5.20;;;3.40;;
34064;SDS011;20339;49.754;20.158;2023-11-21T10:05:20;4.50;;;3.50;;
34064;SDS011;20339;49.754;20.158;2023-11-21T10:07:54;5.10;;;3.50;;
34064;SDS011;20339;49.754;20.158;2023-11-21T10:10:29;3.00;;;1.90;;
34064;SDS011;20339;49.754;20.158;2023-11-21T10:13:06;3.10;;;2.10;;
34064;SDS011;20339;49.754;20.158;2023-11-21T10:15:41;2.90;;;1.90;;
34064;SDS011;20339;49.754;20.158;2023-11-21T10:18:18;6.20;;;2.30;;
34064;SDS011;20339;49.754;20.158;2023-11-21T10:20:55;3.90;;;1.80;;
34064;SDS011;20339;49.754;20.158;2023-11-21T10:23:27;3.50;;;1.90;;
34064;SDS011;20339;49.754;20.158;2023-11-21T10:26:01;4.20;;;2.20;;
34064;SDS011;20339;49.754;20.158;2023-11-21T10:28:36;6.60;;;2.50;;
34064;SDS011;20339;49.754;20.158;2023-11-21T10:31:08;4.70;;;2.20;;
34064;SDS011;20339;49.754;20.158;2023-11-21T10:33:44;6.70;;;3.00;;
34064;SDS011;20339;49.754;20.158;2023-11-21T10:36:26;11.00;;;5.70;;
34064;SDS011;20339;49.754;20.158;2023-11-21T10:38:58;6.70;;;3.20;;
34064;SDS011;20339;49.754;20.158;2023-11-21T10:41:31;8.70;;;5.00;;
34064;SDS011;20339;49.754;20.158;2023-11-21T10:44:05;11.00;;;5.50;;
34064;SDS011;20339;49.754;20.158;2023-11-21T10:46:39;7.70;;;4.70;;
34064;SDS011;20339;49.754;20.158;2023-11-21T10:49:11;9.10;;;4.20;;
34064;SDS011;20339;49.754;20.158;2023-11-21T10:51:44;7.80;;;4.10;;
34064;SDS011;20339;49.754;20.158;2023-11-21T10:54:21;9.10;;;5.90;;
34064;SDS011;20339;49.754;20.158;2023-11-21T10:56:57;7.00;;;4.30;;
34064;SDS011;20339;49.754;20.158;2023-11-21T10:59:31;7.70;;;4.50;;
34064;SDS011;20339;49.754;20.158;2023-11-21T11:02:11;8.40;;;4.70;;
34064;SDS011;20339;49.754;20.158;2023-11-21T11:04:56;6.40;;;3.50;;
34064;SDS011;20339;49.754;20.158;2023-11-21T11:10:05;4.70;;;2.90;;
34064;SDS011;20339;49.754;20.158;2023-11-21T11:12:42;7.60;;;2.70;;
34064;SDS011;20339;49.754;20.158;2023-11-21T11:15:16;5.60;;;3.40;;
34064;SDS011;20339;49.754;20.158;2023-11-21T11:17:48;4.10;;;2.90;;
34064;SDS011;20339;49.754;20.158;2023-11-21T11:20:27;6.30;;;3.20;;
34064;SDS011;20339;49.754;20.158;2023-11-21T11:25:50;6.40;;;3.20;;
34064;SDS011;20339;49.754;20.158;2023-11-21T11:28:34;22.20;;;14.60;;
34064;SDS011;20339;49.754;20.158;2023-11-21T11:31:17;5.60;;;3.60;;
34064;SDS011;20339;49.754;20.158;2023-11-21T11:34:08;3.90;;;2.70;;
34064;SDS011;20339;49.754;20.158;2023-11-21T11:36:55;5.80;;;3.10;;
34064;SDS011;20339;49.754;20.158;2023-11-21T11:39:34;5.20;;;3.60;;
34064;SDS011;20339;49.754;20.158;2023-11-21T11:42:11;4.20;;;2.70;;
34064;SDS011;20339;49.754;20.158;2023-11-21T11:44:52;8.60;;;4.10;;
34064;SDS011;20339;49.754;20.158;2023-11-21T11:47:26;5.10;;;3.30;;
34064;SDS011;20339;49.754;20.158;2023-11-21T11:50:05;5.20;;;3.10;;
34064;SDS011;20339;49.754;20.158;2023-11-21T11:52:43;5.20;;;3.10;;
34064;SDS011;20339;49.754;20.158;2023-11-21T11:55:19;3.90;;;2.20;;
34064;SDS011;20339;49.754;20.158;2023-11-21T11:57:52;4.40;;;2.30;;
34064;SDS011;20339;49.754;20.158;2023-11-21T12:00:32;5.80;;;2.70;;
34064;SDS011;20339;49.754;20.158;2023-11-21T12:03:11;5.90;;;3.60;;
34064;SDS011;20339;49.754;20.158;2023-11-21T12:05:46;4.90;;;2.80;;
34064;SDS011;20339;49.754;20.158;2023-11-21T12:08:26;5.40;;;2.60;;
34064;SDS011;20339;49.754;20.158;2023-11-21T12:11:05;3.40;;;2.70;;
34064;SDS011;20339;49.754;20.158;2023-11-21T12:13:39;6.50;;;3.10;;
34064;SDS011;20339;49.754;20.158;2023-11-21T12:16:11;5.00;;;2.80;;
34064;SDS011;20339;49.754;20.158;2023-11-21T12:18:44;6.00;;;3.20;;
34064;SDS011;20339;49.754;20.158;2023-11-21T12:21:18;8.10;;;3.80;;
34064;SDS011;20339;49.754;20.158;2023-11-21T12:23:53;4.50;;;3.10;;
34064;SDS011;20339;49.754;20.158;2023-11-21T12:26:27;5.50;;;2.70;;
34064;SDS011;20339;49.754;20.158;2023-11-21T12:28:59;3.20;;;2.10;;
34064;SDS011;20339;49.754;20.158;2023-11-21T12:31:36;6.40;;;2.70;;
34064;SDS011;20339;49.754;20.158;2023-11-21T12:34:18;4.70;;;3.10;;
34064;SDS011;20339;49.754;20.158;2023-11-21T12:36:49;6.10;;;3.00;;
34064;SDS011;20339;49.754;20.158;2023-11-21T12:39:22;6.50;;;3.20;;
34064;SDS011;20339;49.754;20.158;2023-11-21T12:41:59;6.70;;;3.00;;
34064;SDS011;20339;49.754;20.158;2023-11-21T12:44:34;4.50;;;2.30;;
34064;SDS011;20339;49.754;20.158;2023-11-21T12:47:11;4.00;;;2.90;;
34064;SDS011;20339;49.754;20.158;2023-11-21T12:49:53;4.80;;;3.10;;
34064;SDS011;20339;49.754;20.158;2023-11-21T12:52:29;4.90;;;2.60;;
34064;SDS011;20339;49.754;20.158;2023-11-21T12:55:04;5.50;;;3.50;;
34064;SDS011;20339;49.754;20.158;2023-11-21T12:57:45;4.50;;;3.40;;
34064;SDS011;20339;49.754;20.158;2023-11-21T13:00:27;5.50;;;3.20;;
34064;SDS011;20339;49.754;20.158;2023-11-21T13:03:05;4.90;;;2.80;;
34064;SDS011;20339;49.754;20.158;2023-11-21T13:05:44;4.80;;;3.10;;
34064;SDS011;20339;49.754;20.158;2023-11-21T13:08:22;7.70;;;3.50;;
34064;SDS011;20339;49.754;20.158;2023-11-21T13:10:58;5.70;;;3.70;;
34064;SDS011;20339;49.754;20.158;2023-11-21T13:13:34;5.90;;;3.70;;
34064;SDS011;20339;49.754;20.158;2023-11-21T13:16:08;4.20;;;3.30;;
34064;SDS011;20339;49.754;20.158;2023-11-21T13:18:50;5.40;;;3.50;;
34064;SDS011;20339;49.754;20.158;2023-11-21T13:21:25;5.30;;;2.90;;
34064;SDS011;20339;49.754;20.158;2023-11-21T13:23:57;5.70;;;3.40;;
34064;SDS011;20339;49.754;20.158;2023-11-21T13:26:47;5.40;;;3.20;;
34064;SDS011;20339;49.754;20.158;2023-11-21T13:29:21;6.20;;;3.70;;
34064;SDS011;20339;49.754;20.158;2023-11-21T13:31:55;6.20;;;3.70;;
34064;SDS011;20339;49.754;20.158;2023-11-21T13:34:29;8.20;;;4.00;;
34064;SDS011;20339;49.754;20.158;2023-11-21T13:37:07;8.20;;;4.50;;
34064;SDS011;20339;49.754;20.158;2023-11-21T13:39:40;6.80;;;3.70;;
34064;SDS011;20339;49.754;20.158;2023-11-21T13:42:13;8.70;;;4.90;;
34064;SDS011;20339;49.754;20.158;2023-11-21T13:44:48;6.60;;;4.50;;
34064;SDS011;20339;49.754;20.158;2023-11-21T13:47:25;8.30;;;4.30;;
34064;SDS011;20339;49.754;20.158;2023-11-21T13:49:59;8.40;;;4.90;;
34064;SDS011;20339;49.754;20.158;2023-11-21T13:52:34;7.80;;;4.60;;
34064;SDS011;20339;49.754;20.158;2023-11-21T13:55:06;6.30;;;4.10;;
34064;SDS011;20339;49.754;20.158;2023-11-21T13:57:44;5.60;;;3.90;;
34064;SDS011;20339;49.754;20.158;2023-11-21T14:00:21;6.10;;;4.10;;
34064;SDS011;20339;49.754;20.158;2023-11-21T14:03:13;6.90;;;4.20;;
34064;SDS011;20339;49.754;20.158;2023-11-21T14:05:50;7.40;;;4.30;;
34064;SDS011;20339;49.754;20.158;2023-11-21T14:08:28;8.70;;;4.50;;
34064;SDS011;20339;49.754;20.158;2023-11-21T14:11:02;7.80;;;4.00;;
34064;SDS011;20339;49.754;20.158;2023-11-21T14:13:38;7.90;;;4.90;;
34064;SDS011;20339;49.754;20.158;2023-11-21T14:16:14;8.50;;;4.90;;
34064;SDS011;20339;49.754;20.158;2023-11-21T14:18:52;7.90;;;5.00;;
34064;SDS011;20339;49.754;20.158;2023-11-21T14:21:38;6.40;;;4.30;;
34064;SDS011;20339;49.754;20.158;2023-11-21T14:24:12;7.10;;;4.20;;
34064;SDS011;20339;49.754;20.158;2023-11-21T14:26:46;9.60;;;5.30;;
34064;SDS011;20339;49.754;20.158;2023-11-21T14:29:20;7.50;;;4.60;;
34064;SDS011;20339;49.754;20.158;2023-11-21T14:31:52;7.70;;;4.10;;
34064;SDS011;20339;49.754;20.158;2023-11-21T14:34:25;8.80;;;4.60;;
34064;SDS011;20339;49.754;20.158;2023-11-21T14:37:01;8.00;;;4.70;;
34064;SDS011;20339;49.754;20.158;2023-11-21T14:39:32;7.60;;;4.70;;
34064;SDS011;20339;49.754;20.158;2023-11-21T14:42:08;13.20;;;8.00;;
34064;SDS011;20339;49.754;20.158;2023-11-21T14:44:42;10.40;;;8.20;;
34064;SDS011;20339;49.754;20.158;2023-11-21T14:47:14;10.90;;;7.00;;
34064;SDS011;20339;49.754;20.158;2023-11-21T14:49:46;10.70;;;6.70;;
34064;SDS011;20339;49.754;20.158;2023-11-21T14:52:28;11.20;;;7.10;;
34064;SDS011;20339;49.754;20.158;2023-11-21T14:55:06;10.00;;;6.90;;
34064;SDS011;20339;49.754;20.158;2023-11-21T14:57:55;8.90;;;6.10;;
34064;SDS011;20339;49.754;20.158;2023-11-21T15:00:30;12.30;;;7.60;;
34064;SDS011;20339;49.754;20.158;2023-11-21T15:03:12;12.90;;;8.50;;
34064;SDS011;20339;49.754;20.158;2023-11-21T15:06:05;13.40;;;8.30;;
34064;SDS011;20339;49.754;20.158;2023-11-21T15:08:59;13.50;;;8.20;;
34064;SDS011;20339;49.754;20.158;2023-11-21T15:11:52;12.90;;;7.50;;
34064;SDS011;20339;49.754;20.158;2023-11-21T15:14:33;12.90;;;7.70;;
34064;SDS011;20339;49.754;20.158;2023-11-21T15:17:09;14.30;;;10.20;;
34064;SDS011;20339;49.754;20.158;2023-11-21T15:19:44;14.80;;;9.40;;
34064;SDS011;20339;49.754;20.158;2023-11-21T15:22:15;17.30;;;9.10;;